Alcinopolis, Brazil
Current Conditions -  °F | °C
As of 1:00 PM on Thursday 27 Nov 2014 (Local Time) from SBCG Reporting Station
Broken Clouds Broken Clouds  
Wind Chill: 81°   Ceiling: 1500
Heat Index: 85°   Visibility: 6mi
Dew Point: 72°   Wind: 3mph
Humidity: 74%   Direction: 310°NW
Pressure: 29.94"   Gusts: NA
Location:  18.32°S, 53.71°W
Report Text: SBCG 271600Z 31003KT 220V020 9999 BKN015 SCT030 27/22 Q1014
Loading
Personal Weather Stations






























Interactive Weather Map New forecast layout! Learn more

10-Day Weather Forecast

Advertisements
Track Severe Weather on mobile